Time;durP1;ratioP1;P1;durP2;ratioP2;P2;SDS_P1;SDS_P2;PMS_P1;PMS_P2;Temp;Humidity;BMP_temperature;BMP_pressure;BME280_temperature;BME280_humidity;BME280_pressure;Samples;Min_cycle;Max_cycle;Signal;HPM_P1;HPM_P2
2023/05/17 00:02:16;;;;;;;10.50;2.30;;;11.60;77.20;;;;;;5073344;28;20437;-51
2023/05/17 00:04:43;;;;;;;8.83;2.17;;;11.40;77.10;;;;;;5072780;28;20402;-52
2023/05/17 00:07:10;;;;;;;7.77;2.73;;;11.40;77.40;;;;;;5072806;28;20414;-52
2023/05/17 00:09:37;;;;;;;8.73;2.43;;;11.40;78.00;;;;;;5072431;28;20485;-52
2023/05/17 00:12:05;;;;;;;7.80;2.30;;;11.20;78.30;;;;;;5072809;28;20434;-52
2023/05/17 00:14:32;;;;;;;7.73;3.57;;;11.40;79.10;;;;;;5072852;28;20893;-52
2023/05/17 00:16:58;;;;;;;7.47;2.77;;;11.50;79.60;;;;;;5072611;28;20406;-52
2023/05/17 00:19:25;;;;;;;5.57;2.70;;;11.40;79.70;;;;;;5072231;28;20425;-52
2023/05/17 00:21:52;;;;;;;5.13;2.40;;;11.50;80.60;;;;;;5072135;28;20489;-51
2023/05/17 00:24:18;;;;;;;6.50;3.40;;;11.50;82.00;;;;;;5054266;28;20422;-51
2023/05/17 00:26:45;;;;;;;5.60;2.00;;;11.00;81.90;;;;;;5072269;28;20417;-53
2023/05/17 00:29:13;;;;;;;8.20;3.03;;;11.20;82.60;;;;;;5072063;28;20457;-53
2023/05/17 00:31:40;;;;;;;7.50;2.73;;;10.80;83.00;;;;;;5054541;28;20413;-53
2023/05/17 00:34:06;;;;;;;8.00;3.30;;;11.50;84.30;;;;;;5072213;28;20441;-51
2023/05/17 00:36:33;;;;;;;7.87;3.47;;;11.20;84.40;;;;;;5072283;28;20431;-51
2023/05/17 00:39:01;;;;;;;12.50;3.30;;;11.30;86.00;;;;;;5054188;28;20932;-51
2023/05/17 00:41:28;;;;;;;7.27;2.90;;;11.00;86.80;;;;;;5072292;28;20762;-51
2023/05/17 00:43:55;;;;;;;8.73;3.70;;;10.40;86.20;;;;;;5054152;28;20807;-51
2023/05/17 00:46:23;;;;;;;6.00;3.57;;;11.00;86.50;;;;;;5072141;28;20517;-51
2023/05/17 00:48:49;;;;;;;10.20;3.47;;;11.40;87.80;;;;;;5071432;28;20983;-51
2023/05/17 00:51:18;;;;;;;11.70;4.10;;;11.10;88.50;;;;;;5054085;28;20450;-51
2023/05/17 00:53:45;;;;;;;10.20;4.13;;;10.70;88.70;;;;;;5072040;28;20437;-52
2023/05/17 00:56:13;;;;;;;8.13;3.57;;;10.40;88.70;;;;;;5071875;28;20401;-51
2023/05/17 00:58:40;;;;;;;10.70;4.10;;;11.30;90.20;;;;;;5053811;28;20462;-51
2023/05/17 01:01:07;;;;;;;12.97;3.90;;;10.70;90.60;;;;;;5054011;28;20457;-51
2023/05/17 01:03:35;;;;;;;11.57;4.20;;;10.80;90.40;;;;;;5071814;28;20435;-51
2023/05/17 01:06:02;;;;;;;9.93;3.77;;;11.30;91.20;;;;;;5072152;28;20430;-51
2023/05/17 01:08:30;;;;;;;6.90;2.93;;;11.00;91.50;;;;;;5071515;28;20466;-51
2023/05/17 01:11:03;;;;;;;5.80;3.20;;;10.60;91.20;;;;;;5053923;28;20449;-52
2023/05/17 01:13:40;;;;;;;9.40;3.80;;;10.70;91.40;;;;;;5054109;28;20453;-53
2023/05/17 01:16:18;;;;;;;9.30;4.27;;;10.70;92.00;;;;;;5070666;28;20437;-51
2023/05/17 01:18:53;;;;;;;14.87;3.90;;;10.80;92.00;;;;;;5071550;28;20434;-53
2023/05/17 01:21:36;;;;;;;11.77;4.27;;;10.50;92.10;;;;;;5071035;28;20439;-53
2023/05/17 01:24:26;;;;;;;10.90;4.10;;;11.10;92.60;;;;;;5071927;28;20438;-53
2023/05/17 01:26:56;;;;;;;14.67;4.90;;;11.00;93.00;;;;;;5071890;28;20488;-51
2023/05/17 01:29:26;;;;;;;11.43;4.30;;;10.20;92.80;;;;;;5071318;28;20489;-52
2023/05/17 01:31:57;;;;;;;15.37;4.70;;;10.40;93.30;;;;;;5053867;28;20449;-52
2023/05/17 01:34:25;;;;;;;9.87;4.40;;;10.90;94.20;;;;;;5054807;28;20439;-52
2023/05/17 01:36:51;;;;;;;8.73;3.77;;;10.80;94.30;;;;;;5075797;28;20434;-51
2023/05/17 01:39:18;;;;;;;15.47;4.67;;;10.00;93.90;;;;;;5075359;28;20501;-52
2023/05/17 01:41:49;;;;;;;13.67;4.70;;;10.50;94.20;;;;;;5057793;28;20412;-52
2023/05/17 01:44:24;;;;;;;11.60;5.23;;;10.20;94.10;;;;;;5075701;28;20926;-53
2023/05/17 01:46:57;;;;;;;16.60;5.03;;;10.30;94.60;;;;;;5057668;28;20465;-53
2023/05/17 01:49:25;;;;;;;11.93;4.70;;;10.60;95.30;;;;;;5074892;28;20492;-50
2023/05/17 01:51:58;;;;;;;12.93;4.17;;;10.30;95.10;;;;;;5057566;28;20950;-51
2023/05/17 01:54:31;;;;;;;15.43;5.00;;;10.80;95.70;;;;;;5075847;28;20446;-51
2023/05/17 01:57:00;;;;;;;13.40;4.47;;;10.50;95.80;;;;;;5075451;28;20426;-51
2023/05/17 01:59:31;;;;;;;13.30;4.60;;;10.80;96.00;;;;;;5057206;28;20474;-51
2023/05/17 02:02:04;;;;;;;12.40;5.20;;;9.90;96.40;;;;;;5057393;28;20415;-51
2023/05/17 02:04:31;;;;;;;12.53;4.53;;;10.40;96.30;;;;;;5075562;28;20529;-52
2023/05/17 02:07:01;;;;;;;12.23;4.40;;;10.50;96.70;;;;;;5075407;28;20487;-51
2023/05/17 02:09:28;;;;;;;14.43;4.40;;;10.40;96.80;;;;;;5073911;28;21002;-51
2023/05/17 02:11:54;;;;;;;11.77;4.73;;;10.70;97.10;;;;;;5057104;28;20733;-51
2023/05/17 02:14:21;;;;;;;17.87;4.97;;;10.40;97.20;;;;;;5056768;28;20442;-52
2023/05/17 02:16:49;;;;;;;14.47;5.43;;;10.40;97.30;;;;;;5057245;28;20924;-52
2023/05/17 02:19:16;;;;;;;14.57;4.90;;;10.80;97.80;;;;;;5056444;28;20466;-51
2023/05/17 02:21:42;;;;;;;15.40;5.13;;;10.10;97.70;;;;;;5056984;28;20419;-51
2023/05/17 02:24:09;;;;;;;17.00;5.57;;;10.50;97.80;;;;;;5074771;28;20811;-51
2023/05/17 02:26:36;;;;;;;15.57;6.50;;;10.40;97.80;;;;;;5074980;28;20774;-51
2023/05/17 02:29:03;;;;;;;15.90;5.70;;;10.50;98.10;;;;;;5074385;28;20572;-54
2023/05/17 02:31:31;;;;;;;19.77;6.10;;;10.00;98.30;;;;;;5056699;28;20437;-54
2023/05/17 02:33:59;;;;;;;14.63;5.03;;;10.50;98.60;;;;;;5074683;28;20423;-53
2023/05/17 02:36:25;;;;;;;15.70;6.50;;;10.50;98.60;;;;;;5056805;28;20953;-53
2023/05/17 02:38:52;;;;;;;15.80;5.70;;;10.50;98.60;;;;;;5074033;28;20799;-54
2023/05/17 02:41:18;;;;;;;16.43;5.40;;;10.60;98.70;;;;;;5074600;28;20583;-54
2023/05/17 02:43:45;;;;;;;17.17;5.17;;;10.40;98.70;;;;;;5055314;28;20650;-53
2023/05/17 02:46:11;;;;;;;16.30;5.43;;;10.50;98.80;;;;;;5073100;28;20429;-55
2023/05/17 02:48:38;;;;;;;18.70;6.27;;;10.40;98.80;;;;;;5055550;28;20432;-55
2023/05/17 02:51:07;;;;;;;18.33;5.17;;;10.60;98.90;;;;;;5056535;28;20496;-53
2023/05/17 02:53:34;;;;;;;12.60;5.13;;;11.00;99.10;;;;;;5056276;28;20838;-52
2023/05/17 02:56:00;;;;;;;11.60;5.30;;;11.10;99.40;;;;;;5056461;28;20451;-54
2023/05/17 02:58:27;;;;;;;15.47;5.47;;;10.70;99.20;;;;;;5055979;28;20843;-54
2023/05/17 03:00:54;;;;;;;13.20;5.10;;;11.10;99.40;;;;;;5056365;28;20512;-53
2023/05/17 03:03:20;;;;;;;17.17;5.87;;;10.90;99.20;;;;;;5056494;28;20476;-54
2023/05/17 03:05:47;;;;;;;17.73;4.63;;;10.60;99.00;;;;;;5074264;28;20439;-51
2023/05/17 03:08:15;;;;;;;14.13;5.00;;;10.70;99.20;;;;;;5055792;28;20456;-52
2023/05/17 03:10:46;;;;;;;11.03;5.10;;;10.90;99.20;;;;;;5055898;28;20810;-51
2023/05/17 03:13:15;;;;;;;9.90;5.43;;;10.70;99.30;;;;;;5056021;28;20813;-52
2023/05/17 03:15:42;;;;;;;15.33;4.83;;;10.80;99.80;;;;;;5055964;28;20437;-52
2023/05/17 03:18:09;;;;;;;11.13;5.47;;;10.80;99.60;;;;;;5055523;28;20529;-52
2023/05/17 03:20:38;;;;;;;15.97;4.97;;;10.80;99.60;;;;;;5055562;28;20462;-52
2023/05/17 03:23:06;;;;;;;24.50;5.07;;;10.90;99.70;;;;;;5055652;28;20428;-52
2023/05/17 03:25:39;;;;;;;12.70;5.10;;;10.80;99.70;;;;;;5055908;28;20484;-51
2023/05/17 03:28:06;;;;;;;16.70;6.40;;;10.80;99.80;;;;;;5055466;28;20420;-52
2023/05/17 03:30:33;;;;;;;12.37;4.57;;;10.60;99.80;;;;;;5055421;28;20457;-51
2023/05/17 03:33:00;;;;;;;12.50;4.87;;;10.80;99.90;;;;;;5055563;28;20940;-52
2023/05/17 03:35:27;;;;;;;8.57;4.47;;;10.70;99.90;;;;;;5055326;28;20421;-51
2023/05/17 03:37:56;;;;;;;14.93;5.10;;;10.80;99.90;;;;;;5055322;28;20420;-53
2023/05/17 03:40:24;;;;;;;12.33;5.43;;;10.90;99.90;;;;;;5055018;28;20552;-51
2023/05/17 03:42:53;;;;;;;14.73;4.87;;;10.70;99.90;;;;;;5055021;28;20927;-51
2023/05/17 03:45:20;;;;;;;13.87;4.73;;;10.80;99.90;;;;;;5055324;28;20450;-51
2023/05/17 03:47:47;;;;;;;11.50;5.00;;;10.90;99.90;;;;;;5054383;28;20962;-50
2023/05/17 03:50:14;;;;;;;6.57;4.20;;;10.90;99.90;;;;;;5054844;28;20493;-52
2023/05/17 03:52:45;;;;;;;14.43;5.03;;;10.90;99.90;;;;;;5055315;28;20420;-52
2023/05/17 03:55:12;;;;;;;12.37;5.00;;;11.00;99.90;;;;;;5054879;28;20504;-51
2023/05/17 03:57:39;;;;;;;21.37;6.50;;;11.10;99.90;;;;;;5054321;28;20826;-51
2023/05/17 04:00:10;;;;;;;13.93;5.10;;;11.00;99.90;;;;;;5054827;28;20453;-52
2023/05/17 04:02:41;;;;;;;16.13;5.70;;;11.00;99.90;;;;;;5073087;28;20410;-52
2023/05/17 04:05:09;;;;;;;11.80;4.57;;;11.20;99.90;;;;;;5055168;28;20466;-53
2023/05/17 04:07:36;;;;;;;10.47;5.00;;;10.90;99.90;;;;;;5054861;28;20445;-52
2023/05/17 04:10:04;;;;;;;12.33;5.87;;;11.00;99.90;;;;;;5054405;28;20508;-52
2023/05/17 04:12:31;;;;;;;11.43;5.00;;;11.00;99.90;;;;;;5054818;28;20438;-53
2023/05/17 04:14:59;;;;;;;16.80;5.40;;;11.10;99.90;;;;;;5054730;28;20436;-52
2023/05/17 04:17:27;;;;;;;12.30;5.40;;;10.90;99.90;;;;;;5054706;28;20441;-52
2023/05/17 04:19:54;;;;;;;18.20;5.67;;;11.10;99.90;;;;;;5054069;28;20985;-52
2023/05/17 04:22:21;;;;;;;14.73;5.70;;;11.00;99.90;;;;;;5054522;28;20454;-53
2023/05/17 04:24:48;;;;;;;26.70;7.20;;;11.10;99.90;;;;;;5054466;28;20454;-53
2023/05/17 04:27:15;;;;;;;11.57;4.67;;;11.20;99.90;;;;;;5054369;28;20477;-53
2023/05/17 04:29:43;;;;;;;18.33;5.53;;;11.20;99.90;;;;;;5053935;28;20475;-53
2023/05/17 04:32:10;;;;;;;8.67;4.53;;;11.40;99.90;;;;;;5054273;28;20420;-53
2023/05/17 04:34:39;;;;;;;16.10;5.60;;;11.50;99.90;;;;;;5054058;28;20501;-52
2023/05/17 04:37:08;;;;;;;14.20;5.60;;;11.90;99.90;;;;;;5054358;28;20761;-52
2023/05/17 04:39:36;;;;;;;16.53;5.43;;;11.70;99.90;;;;;;5053714;28;20532;-53
2023/05/17 04:42:03;;;;;;;12.87;5.10;;;11.70;99.90;;;;;;5054166;28;20425;-53
2023/05/17 04:44:32;;;;;;;11.47;5.97;;;11.80;99.50;;;;;;5053975;28;20429;-53
2023/05/17 04:46:59;;;;;;;10.50;4.50;;;12.00;99.50;;;;;;5054017;28;20787;-52
2023/05/17 04:49:27;;;;;;;14.80;4.90;;;11.90;99.30;;;;;;5053288;28;20480;-52
2023/05/17 04:51:56;;;;;;;17.10;7.27;;;12.00;99.20;;;;;;5053647;28;20417;-53
2023/05/17 04:54:23;;;;;;;12.53;4.80;;;12.10;99.10;;;;;;5053781;28;20430;-52
2023/05/17 04:56:50;;;;;;;15.63;6.60;;;12.10;98.90;;;;;;5053694;28;20437;-53
2023/05/17 04:59:31;;;;;;;11.17;4.97;;;12.20;98.70;;;;;;5053396;28;20490;-52
2023/05/17 05:01:58;;;;;;;15.47;5.30;;;12.30;98.60;;;;;;5054002;28;20488;-53
2023/05/17 05:04:25;;;;;;;17.53;5.17;;;12.10;98.50;;;;;;5071722;28;20780;-53
2023/05/17 05:06:53;;;;;;;15.33;6.47;;;12.50;98.60;;;;;;5071627;28;20780;-51
2023/05/17 05:09:21;;;;;;;15.70;5.80;;;12.20;98.40;;;;;;5053196;28;20473;-53
2023/05/17 05:11:48;;;;;;;11.63;6.03;;;12.40;98.30;;;;;;5071680;28;20539;-53
2023/05/17 05:14:16;;;;;;;19.57;6.20;;;12.60;98.30;;;;;;5053702;28;20460;-52
2023/05/17 05:16:43;;;;;;;26.20;6.10;;;12.40;97.90;;;;;;5053459;28;20451;-52
2023/05/17 05:19:10;;;;;;;16.90;4.73;;;12.50;97.90;;;;;;5053064;28;20970;-51
2023/05/17 05:21:38;;;;;;;11.90;4.73;;;12.60;97.70;;;;;;5053401;28;20868;-52
2023/05/17 05:24:08;;;;;;;13.10;5.00;;;12.50;97.40;;;;;;5053366;28;20467;-53
2023/05/17 05:26:36;;;;;;;15.97;4.77;;;12.70;97.20;;;;;;5053603;28;20801;-52
2023/05/17 05:29:04;;;;;;;18.03;5.10;;;12.90;97.00;;;;;;5053053;28;20551;-52
2023/05/17 05:31:32;;;;;;;13.27;5.13;;;13.00;97.10;;;;;;5053446;28;20486;-53
2023/05/17 05:34:01;;;;;;;11.73;4.20;;;13.30;96.50;;;;;;5053129;28;20424;-52
2023/05/17 05:36:29;;;;;;;13.00;4.80;;;13.00;95.70;;;;;;5053368;28;20442;-52
2023/05/17 05:38:56;;;;;;;16.87;4.90;;;13.00;95.70;;;;;;5052891;28;20540;-53
2023/05/17 05:41:23;;;;;;;16.10;4.37;;;13.10;95.70;;;;;;5051927;28;20460;-53
2023/05/17 05:43:52;;;;;;;8.87;4.57;;;13.30;95.70;;;;;;5053141;28;20490;-51
2023/05/17 05:46:19;;;;;;;15.70;7.10;;;13.30;95.60;;;;;;5051995;28;20430;-52
2023/05/17 05:48:46;;;;;;;16.90;5.50;;;13.60;95.60;;;;;;5052812;28;20483;-52
2023/05/17 05:51:15;;;;;;;16.03;5.13;;;13.60;95.40;;;;;;5052678;28;20487;-50
2023/05/17 05:53:44;;;;;;;14.30;5.40;;;13.90;95.50;;;;;;5052795;28;20430;-53
2023/05/17 05:56:11;;;;;;;12.60;5.10;;;13.50;95.10;;;;;;5053021;28;20589;-52
2023/05/17 05:58:38;;;;;;;17.27;4.50;;;13.50;95.00;;;;;;5052514;28;20436;-53
2023/05/17 06:01:07;;;;;;;13.30;4.47;;;13.60;95.00;;;;;;5052500;28;20460;-51
2023/05/17 06:03:35;;;;;;;14.70;5.07;;;13.70;94.70;;;;;;5052064;28;20639;-52
2023/05/17 06:06:02;;;;;;;19.77;5.57;;;13.60;94.20;;;;;;5071014;28;20451;-52
2023/05/17 06:08:29;;;;;;;17.83;5.10;;;13.60;94.30;;;;;;5051939;28;20475;-52
2023/05/17 06:10:56;;;;;;;9.73;3.93;;;13.50;93.90;;;;;;5052478;28;20479;-51
2023/05/17 06:13:23;;;;;;;18.17;4.90;;;13.70;93.60;;;;;;5070652;28;20437;-51
2023/05/17 06:15:50;;;;;;;14.07;4.27;;;13.70;93.30;;;;;;5052379;28;20538;-51
2023/05/17 06:18:18;;;;;;;16.10;4.63;;;14.10;93.00;;;;;;5052090;28;20420;-51
2023/05/17 06:20:46;;;;;;;13.33;5.73;;;13.90;92.20;;;;;;5053795;28;20479;-51
2023/05/17 06:23:14;;;;;;;11.90;4.20;;;14.20;91.50;;;;;;5056380;28;20551;-51
2023/05/17 06:25:44;;;;;;;10.93;4.13;;;14.10;91.30;;;;;;5073974;28;20429;-52
2023/05/17 06:28:11;;;;;;;12.53;4.27;;;14.00;90.80;;;;;;5055697;28;20548;-53
2023/05/17 06:30:37;;;;;;;9.27;3.50;;;13.80;89.30;;;;;;5073623;28;20499;-51
2023/05/17 06:33:04;;;;;;;11.20;4.53;;;13.60;89.20;;;;;;5073840;28;20433;-51
2023/05/17 06:35:34;;;;;;;16.03;4.40;;;13.60;89.60;;;;;;5055679;28;20955;-52
2023/05/17 06:38:01;;;;;;;10.43;3.37;;;13.70;90.00;;;;;;5074117;28;20436;-52
2023/05/17 06:40:28;;;;;;;18.17;4.63;;;13.90;90.30;;;;;;5055392;28;21071;-51
2023/05/17 06:42:55;;;;;;;16.00;3.60;;;13.60;90.10;;;;;;5055904;28;20876;-52
2023/05/17 06:45:23;;;;;;;9.67;3.00;;;13.60;90.20;;;;;;5074170;28;20555;-51
2023/05/17 06:47:50;;;;;;;8.90;3.13;;;13.50;88.80;;;;;;5074070;28;20741;-50
2023/05/17 06:50:17;;;;;;;11.70;4.00;;;13.40;87.20;;;;;;5073760;28;20499;-51
2023/05/17 06:52:45;;;;;;;13.03;3.60;;;13.60;87.90;;;;;;5075160;28;20459;-52
2023/05/17 06:55:15;;;;;;;16.07;3.50;;;13.30;87.20;;;;;;5073961;28;20433;-51
2023/05/17 06:57:42;;;;;;;14.73;3.90;;;13.20;86.60;;;;;;5055583;28;20500;-51
2023/05/17 07:00:10;;;;;;;6.10;2.93;;;13.30;87.20;;;;;;5073108;28;20477;-50
2023/05/17 07:02:37;;;;;;;11.60;2.80;;;13.30;85.80;;;;;;5055690;28;20826;-50
2023/05/17 07:05:06;;;;;;;10.20;3.23;;;13.30;85.80;;;;;;5073434;28;20513;-51
2023/05/17 07:07:33;;;;;;;11.20;2.63;;;13.30;85.50;;;;;;5074014;28;20924;-50
2023/05/17 07:10:01;;;;;;;9.67;3.60;;;13.30;84.40;;;;;;5055284;28;20499;-51
2023/05/17 07:12:28;;;;;;;12.60;3.63;;;13.30;84.70;;;;;;5073616;28;20513;-51
2023/05/17 07:14:55;;;;;;;10.77;2.93;;;13.00;81.90;;;;;;5073530;28;20915;-50
2023/05/17 07:17:22;;;;;;;6.73;2.77;;;13.10;82.20;;;;;;5055347;28;20992;-52
2023/05/17 07:19:49;;;;;;;7.10;3.00;;;13.30;82.90;;;;;;5073213;28;20528;-51
2023/05/17 07:22:17;;;;;;;12.63;2.53;;;13.30;82.70;;;;;;5073464;28;20516;-52
2023/05/17 07:24:44;;;;;;;13.67;3.83;;;13.20;81.90;;;;;;5073631;28;20776;-55
2023/05/17 07:27:13;;;;;;;14.73;3.17;;;13.30;80.10;;;;;;5073388;28;20433;-52
2023/05/17 07:29:41;;;;;;;10.10;3.07;;;13.20;79.30;;;;;;5054844;28;20901;-52
2023/05/17 07:32:08;;;;;;;9.10;2.70;;;12.80;79.90;;;;;;5053479;28;20478;-50
2023/05/17 07:34:35;;;;;;;8.60;3.20;;;13.00;80.70;;;;;;5072756;28;20436;-52
2023/05/17 07:37:02;;;;;;;10.70;2.63;;;12.90;81.40;;;;;;5054891;28;20509;-52
2023/05/17 07:39:30;;;;;;;6.60;2.50;;;13.30;82.20;;;;;;5054378;28;20892;-51
2023/05/17 07:41:57;;;;;;;13.20;3.00;;;13.00;81.80;;;;;;5054687;28;20528;-51
2023/05/17 07:44:25;;;;;;;13.23;4.20;;;12.90;81.40;;;;;;5054728;28;20478;-51
2023/05/17 07:46:52;;;;;;;13.20;3.23;;;12.90;81.70;;;;;;5054880;28;20974;-50
2023/05/17 07:49:19;;;;;;;10.40;3.10;;;13.10;83.40;;;;;;5072287;28;21084;-52
2023/05/17 07:51:48;;;;;;;15.33;3.60;;;13.10;84.40;;;;;;5055120;28;20475;-51
2023/05/17 07:54:23;;;;;;;16.93;3.23;;;13.30;85.20;;;;;;5054913;28;20450;-51
2023/05/17 07:56:51;;;;;;;7.97;2.60;;;13.40;85.10;;;;;;5054737;28;20448;-50
2023/05/17 07:59:19;;;;;;;11.83;2.97;;;13.50;84.70;;;;;;5072346;28;20530;-51
2023/05/17 08:01:47;;;;;;;16.67;3.47;;;13.60;83.90;;;;;;5072628;28;20429;-50
2023/05/17 08:04:14;;;;;;;11.83;2.83;;;13.60;83.10;;;;;;5072262;28;20528;-51
2023/05/17 08:06:41;;;;;;;17.30;3.50;;;13.60;82.20;;;;;;5072563;28;20411;-52
2023/05/17 08:09:09;;;;;;;11.53;3.80;;;13.60;80.80;;;;;;5054522;28;20947;-52
2023/05/17 08:11:44;;;;;;;13.43;4.00;;;13.60;79.60;;;;;;5055034;28;20476;-52
2023/05/17 08:14:13;;;;;;;11.50;2.43;;;13.50;77.90;;;;;;5072679;28;20407;-53
2023/05/17 08:16:40;;;;;;;9.80;2.37;;;13.50;76.30;;;;;;5054833;28;20422;-52
2023/05/17 08:19:12;;;;;;;13.13;3.03;;;13.60;75.90;;;;;;5072038;28;20480;-52
2023/05/17 08:21:39;;;;;;;10.93;3.10;;;13.50;75.50;;;;;;5053732;28;20482;-53
2023/05/17 08:24:07;;;;;;;9.60;2.90;;;13.40;75.70;;;;;;5070948;28;20528;-52
2023/05/17 08:26:34;;;;;;;5.53;2.00;;;13.50;73.60;;;;;;5053311;28;20548;-51
2023/05/17 08:29:03;;;;;;;11.07;2.10;;;13.30;72.70;;;;;;5070178;28;20525;-51
2023/05/17 08:31:31;;;;;;;13.33;2.90;;;13.30;73.20;;;;;;5070400;28;20484;-51
2023/05/17 08:33:58;;;;;;;9.90;2.63;;;13.20;73.00;;;;;;5071748;28;20494;-53
2023/05/17 08:36:27;;;;;;;12.02;2.60;;;13.20;74.30;;;;;;5053700;28;20478;-50
2023/05/17 08:38:54;;;;;;;10.40;3.30;;;13.20;74.90;;;;;;5069291;28;20537;-53
2023/05/17 08:41:21;;;;;;;13.20;4.03;;;13.30;74.80;;;;;;5052939;28;20433;-50
2023/05/17 08:43:49;;;;;;;8.30;3.30;;;14.00;75.40;;;;;;5053268;28;20238;-53
2023/05/17 08:46:20;;;;;;;7.50;2.67;;;13.50;75.60;;;;;;5053347;28;20444;-51
2023/05/17 08:48:50;;;;;;;11.50;2.70;;;13.40;75.90;;;;;;5053357;28;20491;-51
2023/05/17 08:51:19;;;;;;;11.03;2.37;;;13.50;76.60;;;;;;5053519;28;20985;-51
2023/05/17 08:53:49;;;;;;;13.73;2.60;;;13.30;75.80;;;;;;5071709;28;20959;-50
2023/05/17 08:56:18;;;;;;;13.20;3.70;;;13.40;73.60;;;;;;5060225;28;20552;-51
2023/05/17 08:58:48;;;;;;;8.13;3.23;;;13.50;74.30;;;;;;5070710;28;20456;-53
2023/05/17 09:01:17;;;;;;;11.97;3.50;;;13.40;74.80;;;;;;5053280;28;20527;-49
2023/05/17 09:03:48;;;;;;;8.33;2.57;;;13.50;74.60;;;;;;5052396;28;20435;-50
2023/05/17 09:06:17;;;;;;;34.00;4.93;;;13.60;71.40;;;;;;5071560;28;20957;-51
2023/05/17 09:08:44;;;;;;;11.70;3.30;;;13.60;71.70;;;;;;5070781;28;20454;-51
2023/05/17 09:11:13;;;;;;;9.57;2.77;;;13.60;70.40;;;;;;5071330;28;20465;-52
2023/05/17 09:13:39;;;;;;;9.07;2.78;;;13.60;70.50;;;;;;5070033;28;20426;-52
2023/05/17 09:16:14;;;;;;;8.83;2.60;;;13.80;68.80;;;;;;5053014;28;20241;-56
2023/05/17 09:18:41;;;;;;;11.07;2.43;;;13.70;67.70;;;;;;5050113;28;20533;-54
2023/05/17 09:21:13;;;;;;;10.00;2.80;;;13.40;68.30;;;;;;5062007;28;20448;-51
2023/05/17 09:23:40;;;;;;;10.63;2.90;;;13.50;69.50;;;;;;5051357;28;20549;-52
2023/05/17 09:26:08;;;;;;;7.73;2.53;;;13.50;70.20;;;;;;5065912;28;20533;-51
2023/05/17 09:28:42;;;;;;;12.77;2.90;;;13.40;70.00;;;;;;5052741;28;20469;-51
2023/05/17 09:31:12;;;;;;;8.73;3.00;;;13.40;70.30;;;;;;5070783;28;20407;-53
2023/05/17 09:33:43;;;;;;;10.33;2.87;;;13.40;70.70;;;;;;5033197;28;20863;-55
2023/05/17 09:36:20;;;;;;;9.73;2.93;;;13.50;71.30;;;;;;5051327;28;20437;-53
2023/05/17 09:38:55;;;;;;;10.97;3.07;;;13.70;71.60;;;;;;5050825;28;20457;-54
2023/05/17 09:41:25;;;;;;;11.03;3.43;;;13.70;70.90;;;;;;5067128;28;20559;-53
2023/05/17 09:44:01;;;;;;;8.77;2.70;;;14.00;71.60;;;;;;5070757;28;20484;-52
2023/05/17 09:46:28;;;;;;;10.23;2.97;;;13.90;68.90;;;;;;5070698;28;20494;-52
2023/05/17 09:48:55;;;;;;;7.33;3.10;;;13.70;69.30;;;;;;5052460;28;20482;-52
2023/05/17 09:51:35;;;;;;;13.63;4.13;;;13.70;69.60;;;;;;5070891;28;20482;-51
2023/05/17 09:54:06;;;;;;;10.93;3.10;;;13.80;68.70;;;;;;5052916;28;20448;-51
2023/05/17 09:56:35;;;;;;;9.20;2.70;;;13.80;69.30;;;;;;5055819;28;20884;-52
2023/05/17 09:59:04;;;;;;;12.80;3.67;;;13.70;68.80;;;;;;5074123;28;20484;-52
2023/05/17 10:01:32;;;;;;;8.33;3.13;;;14.00;68.50;;;;;;5056807;28;20536;-52
2023/05/17 10:04:01;;;;;;;19.70;3.60;;;13.90;68.80;;;;;;5074466;28;20464;-52
2023/05/17 10:06:29;;;;;;;13.40;2.60;;;14.00;68.10;;;;;;5075072;28;20486;-51
2023/05/17 10:08:58;;;;;;;11.23;2.70;;;14.00;67.10;;;;;;5056251;28;20445;-50
2023/05/17 10:11:32;;;;;;;11.27;3.33;;;14.00;68.00;;;;;;5056454;28;20448;-52
2023/05/17 10:14:14;;;;;;;14.40;2.63;;;14.00;68.80;;;;;;5057499;28;21221;-51
2023/05/17 10:16:42;;;;;;;13.37;3.60;;;13.90;67.50;;;;;;5075640;28;20541;-51
2023/05/17 10:19:11;;;;;;;13.43;3.20;;;14.00;66.80;;;;;;5080340;28;20438;-52
2023/05/17 10:21:39;;;;;;;10.37;3.30;;;13.80;66.70;;;;;;5084769;28;20472;-50
2023/05/17 10:24:07;;;;;;;8.97;2.20;;;13.90;67.40;;;;;;5063694;28;20534;-51
2023/05/17 10:26:35;;;;;;;14.40;3.50;;;14.10;66.90;;;;;;5074144;28;20441;-52
2023/05/17 10:29:05;;;;;;;9.70;2.57;;;13.90;67.50;;;;;;5067970;28;20964;-53
2023/05/17 10:31:35;;;;;;;10.90;2.30;;;13.80;66.50;;;;;;5074293;28;20435;-52
2023/05/17 10:34:04;;;;;;;7.57;2.93;;;13.80;66.40;;;;;;5074362;28;20502;-50
2023/05/17 10:36:31;;;;;;;11.10;2.93;;;13.90;64.80;;;;;;5063126;28;20445;-52
2023/05/17 10:38:59;;;;;;;15.53;3.70;;;14.00;65.00;;;;;;5088474;28;20534;-51
2023/05/17 10:41:33;;;;;;;13.40;3.07;;;14.10;64.90;;;;;;5082116;28;20432;-50
2023/05/17 10:44:06;;;;;;;11.03;2.40;;;13.90;63.50;;;;;;5066720;28;20494;-50
2023/05/17 10:46:34;;;;;;;7.63;2.30;;;13.90;62.90;;;;;;5073962;28;20455;-50
2023/05/17 10:49:01;;;;;;;11.30;2.37;;;13.90;63.30;;;;;;5062804;28;20468;-52
2023/05/17 10:51:31;;;;;;;14.20;2.43;;;13.80;63.30;;;;;;5066553;28;20426;-50
2023/05/17 10:54:10;;;;;;;5.57;2.13;;;14.30;62.90;;;;;;5068279;28;20416;-50
2023/05/17 10:56:41;;;;;;;11.97;2.93;;;13.80;62.30;;;;;;5073975;28;20630;-53
2023/05/17 10:59:17;;;;;;;6.20;2.63;;;14.00;62.80;;;;;;5073369;28;20480;-51
2023/05/17 11:01:53;;;;;;;7.00;2.40;;;14.10;62.50;;;;;;5061054;28;20453;-52
2023/05/17 11:04:22;;;;;;;8.70;2.77;;;14.30;63.00;;;;;;5081433;28;20471;-51
2023/05/17 11:06:51;;;;;;;10.53;3.33;;;14.10;62.70;;;;;;5086272;28;20454;-51
2023/05/17 11:09:23;;;;;;;7.60;2.27;;;14.10;62.70;;;;;;5064359;28;20446;-53
2023/05/17 11:12:07;;;;;;;6.80;2.40;;;14.20;61.30;;;;;;5076680;28;20458;-53
2023/05/17 11:14:54;;;;;;;8.25;2.90;;;14.20;61.40;;;;;;5058471;28;20438;-52
2023/05/17 11:17:22;;;;;;;9.50;2.90;;;14.60;60.80;;;;;;5070128;28;20256;-52
2023/05/17 11:20:10;;;;;;;12.20;2.77;;;14.30;61.70;;;;;;5054934;28;21117;-52
2023/05/17 11:22:39;;;;;;;11.33;2.60;;;14.20;62.60;;;;;;5055425;28;20550;-51
2023/05/17 11:25:09;;;;;;;9.90;2.40;;;14.30;61.80;;;;;;5054988;28;20862;-51
2023/05/17 11:27:37;;;;;;;12.37;2.30;;;14.20;61.70;;;;;;5073053;28;20432;-53
2023/05/17 11:30:16;;;;;;;10.40;2.10;;;14.20;61.90;;;;;;5035560;28;20530;-51
2023/05/17 11:32:47;;;;;;;10.90;2.27;;;14.30;61.50;;;;;;5051850;28;20476;-52
2023/05/17 11:35:15;;;;;;;13.27;3.37;;;14.40;61.80;;;;;;5035014;28;20527;-51
2023/05/17 11:37:45;;;;;;;11.00;2.40;;;14.40;62.20;;;;;;5052609;28;20449;-50
2023/05/17 11:40:13;;;;;;;16.40;2.60;;;14.40;61.30;;;;;;5059044;28;20466;-52
2023/05/17 11:42:40;;;;;;;5.78;2.20;;;14.40;61.30;;;;;;5054640;28;20417;-52
2023/05/17 11:45:09;;;;;;;10.00;2.70;;;14.40;61.60;;;;;;5053634;28;20845;-52
2023/05/17 11:47:40;;;;;;;11.67;3.10;;;14.70;61.10;;;;;;5072649;28;20663;-51
2023/05/17 11:50:08;;;;;;;9.43;2.70;;;14.70;61.20;;;;;;5054523;28;20450;-54
2023/05/17 11:52:35;;;;;;;9.40;2.93;;;14.70;61.50;;;;;;5072803;28;20999;-54
2023/05/17 11:55:03;;;;;;;4.70;2.07;;;14.80;60.40;;;;;;5072021;28;20645;-53
2023/05/17 11:57:31;;;;;;;8.32;2.33;;;14.60;59.50;;;;;;5050942;28;20432;-51
2023/05/17 12:00:00;;;;;;;7.47;2.50;;;14.70;60.20;;;;;;5062672;28;20231;-53
2023/05/17 12:02:29;;;;;;;16.63;3.40;;;14.60;59.90;;;;;;5052480;28;20446;-51
2023/05/17 12:04:56;;;;;;;8.13;2.20;;;14.90;59.60;;;;;;5067762;28;20466;-53
2023/05/17 12:07:24;;;;;;;10.97;2.73;;;14.90;58.30;;;;;;5072014;28;20447;-52
2023/05/17 12:09:52;;;;;;;8.57;3.77;;;14.90;58.30;;;;;;5071775;28;20829;-53
2023/05/17 12:12:21;;;;;;;17.43;4.27;;;14.90;59.20;;;;;;5053810;28;20808;-53
2023/05/17 12:14:49;;;;;;;8.63;3.43;;;14.90;60.00;;;;;;5053554;28;20424;-54
2023/05/17 12:17:24;;;;;;;8.30;2.70;;;15.00;59.90;;;;;;5059486;28;20471;-54
2023/05/17 12:20:05;;;;;;;14.83;3.07;;;15.20;59.70;;;;;;5071042;28;20972;-52
2023/05/17 12:22:32;;;;;;;11.37;2.73;;;15.20;58.70;;;;;;5053742;28;20489;-54
2023/05/17 12:24:59;;;;;;;12.87;3.43;;;15.10;58.80;;;;;;5053974;28;20450;-54
2023/05/17 12:27:27;;;;;;;9.00;2.20;;;15.10;58.70;;;;;;5071851;28;20441;-54
2023/05/17 12:29:57;;;;;;;9.73;2.67;;;15.10;57.60;;;;;;5071106;28;20453;-54
2023/05/17 12:32:24;;;;;;;7.73;2.70;;;15.30;57.00;;;;;;5071928;28;20485;-54
2023/05/17 12:34:51;;;;;;;11.17;3.20;;;15.00;57.30;;;;;;5054065;28;20489;-52
2023/05/17 12:37:21;;;;;;;6.43;2.10;;;15.30;58.00;;;;;;5053662;28;20485;-53
2023/05/17 12:39:48;;;;;;;11.90;2.50;;;15.10;57.50;;;;;;5070756;28;20536;-53
2023/05/17 12:42:15;;;;;;;8.33;2.30;;;15.30;57.80;;;;;;5071614;28;20456;-54
2023/05/17 12:44:42;;;;;;;8.10;2.30;;;15.00;57.50;;;;;;5071867;28;20453;-55
2023/05/17 12:47:10;;;;;;;9.30;2.33;;;15.30;57.70;;;;;;5053225;28;21032;-55
2023/05/17 12:49:51;;;;;;;7.80;2.60;;;15.00;58.20;;;;;;5070260;28;20560;-54